sensor_id;sensor_type;location;lat;lon;timestamp;pressure;altitude;pressure_sealevel;temperature;humidity
43701;BME280;58809;47.984;7.964;2023-03-01T00:02:13;97720.97;;;-2.16;83.04
43701;BME280;58809;47.984;7.964;2023-03-01T00:05:14;97716.69;;;-2.17;82.80
43701;BME280;58809;47.984;7.964;2023-03-01T00:08:16;97713.34;;;-2.19;82.63
43701;BME280;58809;47.984;7.964;2023-03-01T00:11:23;97718.38;;;-2.16;82.65
43701;BME280;58809;47.984;7.964;2023-03-01T00:14:25;97718.84;;;-2.09;82.52
43701;BME280;58809;47.984;7.964;2023-03-01T00:17:27;97717.13;;;-1.94;81.86
43701;BME280;58809;47.984;7.964;2023-03-01T00:20:29;97712.69;;;-1.92;81.46
43701;BME280;58809;47.984;7.964;2023-03-01T00:23:31;97707.75;;;-1.97;81.34
43701;BME280;58809;47.984;7.964;2023-03-01T00:26:33;97715.25;;;-2.06;81.74
43701;BME280;58809;47.984;7.964;2023-03-01T00:29:34;97714.66;;;-2.11;81.82
43701;BME280;58809;47.984;7.964;2023-03-01T00:32:36;97710.50;;;-2.14;82.14
43701;BME280;58809;47.984;7.964;2023-03-01T00:35:37;97709.31;;;-2.08;82.39
43701;BME280;58809;47.984;7.964;2023-03-01T00:38:42;97708.47;;;-2.09;81.85
43701;BME280;58809;47.984;7.964;2023-03-01T00:41:44;97700.56;;;-2.22;82.20
43701;BME280;58809;47.984;7.964;2023-03-01T00:44:45;97694.63;;;-2.24;82.78
43701;BME280;58809;47.984;7.964;2023-03-01T00:47:48;97697.88;;;-2.20;82.60
43701;BME280;58809;47.984;7.964;2023-03-01T00:50:50;97685.41;;;-2.14;82.24
43701;BME280;58809;47.984;7.964;2023-03-01T00:53:54;97686.16;;;-2.11;82.17
43701;BME280;58809;47.984;7.964;2023-03-01T00:56:56;97693.09;;;-2.12;82.23
43701;BME280;58809;47.984;7.964;2023-03-01T00:59:57;97688.25;;;-2.18;82.34
43701;BME280;58809;47.984;7.964;2023-03-01T01:02:59;97683.84;;;-2.16;82.26
43701;BME280;58809;47.984;7.964;2023-03-01T01:06:01;97682.34;;;-2.06;81.88
43701;BME280;58809;47.984;7.964;2023-03-01T01:09:12;97677.16;;;-2.06;81.82
43701;BME280;58809;47.984;7.964;2023-03-01T01:12:18;97674.88;;;-2.10;82.13
43701;BME280;58809;47.984;7.964;2023-03-01T01:15:19;97673.09;;;-2.10;82.23
43701;BME280;58809;47.984;7.964;2023-03-01T01:18:21;97675.53;;;-2.07;82.11
43701;BME280;58809;47.984;7.964;2023-03-01T01:21:24;97678.78;;;-2.03;82.01
43701;BME280;58809;47.984;7.964;2023-03-01T01:24:25;97675.63;;;-1.94;81.69
43701;BME280;58809;47.984;7.964;2023-03-01T01:27:27;97668.94;;;-1.84;81.27
43701;BME280;58809;47.984;7.964;2023-03-01T01:30:28;97671.06;;;-1.76;80.92
43701;BME280;58809;47.984;7.964;2023-03-01T01:33:31;97655.50;;;-1.62;80.52
43701;BME280;58809;47.984;7.964;2023-03-01T01:36:34;97648.38;;;-1.58;79.57
43701;BME280;58809;47.984;7.964;2023-03-01T01:39:35;97649.84;;;-1.54;79.53
43701;BME280;58809;47.984;7.964;2023-03-01T01:42:37;97653.47;;;-1.57;79.40
43701;BME280;58809;47.984;7.964;2023-03-01T01:45:39;97642.69;;;-1.50;79.36
43701;BME280;58809;47.984;7.964;2023-03-01T01:48:47;97649.19;;;-1.43;79.07
43701;BME280;58809;47.984;7.964;2023-03-01T01:51:53;97654.47;;;-1.45;78.71
43701;BME280;58809;47.984;7.964;2023-03-01T01:55:05;97638.16;;;-1.47;78.75
43701;BME280;58809;47.984;7.964;2023-03-01T01:58:09;97639.28;;;-1.51;79.20
43701;BME280;58809;47.984;7.964;2023-03-01T02:01:12;97633.34;;;-1.53;78.67
43701;BME280;58809;47.984;7.964;2023-03-01T02:04:13;97626.47;;;-1.54;78.64
43701;BME280;58809;47.984;7.964;2023-03-01T02:07:20;97627.25;;;-1.66;79.02
43701;BME280;58809;47.984;7.964;2023-03-01T02:10:23;97622.25;;;-1.84;79.79
43701;BME280;58809;47.984;7.964;2023-03-01T02:13:26;97624.50;;;-1.92;80.37
43701;BME280;58809;47.984;7.964;2023-03-01T02:16:28;97615.19;;;-1.96;80.79
43701;BME280;58809;47.984;7.964;2023-03-01T02:19:42;97622.25;;;-1.98;80.97
43701;BME280;58809;47.984;7.964;2023-03-01T02:22:46;97622.25;;;-1.98;81.31
43701;BME280;58809;47.984;7.964;2023-03-01T02:25:56;97627.06;;;-2.06;81.08
43701;BME280;58809;47.984;7.964;2023-03-01T02:28:59;97625.13;;;-2.03;81.60
43701;BME280;58809;47.984;7.964;2023-03-01T02:32:02;97619.13;;;-2.03;81.95
43701;BME280;58809;47.984;7.964;2023-03-01T02:35:05;97616.63;;;-2.05;81.76
43701;BME280;58809;47.984;7.964;2023-03-01T02:38:08;97610.78;;;-2.08;82.13
43701;BME280;58809;47.984;7.964;2023-03-01T02:41:13;97608.38;;;-2.11;82.30
43701;BME280;58809;47.984;7.964;2023-03-01T02:44:16;97614.56;;;-2.14;82.29
43701;BME280;58809;47.984;7.964;2023-03-01T02:47:18;97602.91;;;-2.07;82.75
43701;BME280;58809;47.984;7.964;2023-03-01T02:56:41;97587.34;;;-2.07;82.62
43701;BME280;58809;47.984;7.964;2023-03-01T02:59:44;97605.88;;;-1.99;82.27
43701;BME280;58809;47.984;7.964;2023-03-01T03:02:47;97596.88;;;-1.93;82.50
43701;BME280;58809;47.984;7.964;2023-03-01T03:05:55;97591.84;;;-1.82;82.15
43701;BME280;58809;47.984;7.964;2023-03-01T03:08:57;97588.69;;;-1.72;82.04
43701;BME280;58809;47.984;7.964;2023-03-01T03:11:59;97587.75;;;-1.57;81.91
43701;BME280;58809;47.984;7.964;2023-03-01T03:15:01;97590.50;;;-1.46;81.25
43701;BME280;58809;47.984;7.964;2023-03-01T03:18:05;97587.34;;;-1.37;80.90
43701;BME280;58809;47.984;7.964;2023-03-01T03:21:08;97583.59;;;-1.32;80.95
43701;BME280;58809;47.984;7.964;2023-03-01T03:24:13;97590.72;;;-1.22;80.89
43701;BME280;58809;47.984;7.964;2023-03-01T03:27:15;97583.56;;;-1.18;80.80
43701;BME280;58809;47.984;7.964;2023-03-01T03:30:18;97573.63;;;-1.11;80.46
43701;BME280;58809;47.984;7.964;2023-03-01T03:33:20;97577.88;;;-1.10;80.62
43701;BME280;58809;47.984;7.964;2023-03-01T03:36:23;97569.78;;;-1.06;80.33
43701;BME280;58809;47.984;7.964;2023-03-01T03:39:26;97569.09;;;-0.95;80.84
43701;BME280;58809;47.984;7.964;2023-03-01T03:42:28;97568.78;;;-0.90;80.51
43701;BME280;58809;47.984;7.964;2023-03-01T03:45:30;97562.25;;;-0.83;79.73
43701;BME280;58809;47.984;7.964;2023-03-01T03:48:37;97573.00;;;-0.75;79.71
43701;BME280;58809;47.984;7.964;2023-03-01T03:51:38;97569.66;;;-0.64;79.57
43701;BME280;58809;47.984;7.964;2023-03-01T03:54:40;97568.31;;;-0.57;78.71
43701;BME280;58809;47.984;7.964;2023-03-01T03:57:42;97564.06;;;-0.45;78.34
43701;BME280;58809;47.984;7.964;2023-03-01T04:00:44;97566.06;;;-0.36;77.86
43701;BME280;58809;47.984;7.964;2023-03-01T04:03:46;97563.66;;;-0.26;77.16
43701;BME280;58809;47.984;7.964;2023-03-01T04:06:55;97554.19;;;-0.14;76.42
43701;BME280;58809;47.984;7.964;2023-03-01T04:09:57;97554.47;;;-0.06;76.29
43701;BME280;58809;47.984;7.964;2023-03-01T04:12:58;97548.88;;;0.00;76.14
43701;BME280;58809;47.984;7.964;2023-03-01T04:16:00;97552.19;;;0.02;76.40
43701;BME280;58809;47.984;7.964;2023-03-01T04:19:01;97549.25;;;0.07;75.34
43701;BME280;58809;47.984;7.964;2023-03-01T04:22:03;97544.66;;;0.10;75.72
43701;BME280;58809;47.984;7.964;2023-03-01T04:25:10;97545.09;;;0.17;75.19
43701;BME280;58809;47.984;7.964;2023-03-01T04:28:15;97536.53;;;0.28;74.83
43701;BME280;58809;47.984;7.964;2023-03-01T04:31:19;97530.38;;;0.29;74.78
43701;BME280;58809;47.984;7.964;2023-03-01T04:34:22;97537.63;;;0.36;74.68
43701;BME280;58809;47.984;7.964;2023-03-01T04:37:24;97531.38;;;0.39;74.49
43701;BME280;58809;47.984;7.964;2023-03-01T04:40:26;97523.56;;;0.39;74.56
43701;BME280;58809;47.984;7.964;2023-03-01T04:43:28;97538.84;;;0.44;74.28
43701;BME280;58809;47.984;7.964;2023-03-01T04:46:30;97538.53;;;0.48;74.57
43701;BME280;58809;47.984;7.964;2023-03-01T04:49:32;97538.31;;;0.51;74.00
43701;BME280;58809;47.984;7.964;2023-03-01T04:52:33;97530.63;;;0.50;74.44
43701;BME280;58809;47.984;7.964;2023-03-01T04:55:35;97531.94;;;0.55;74.26
43701;BME280;58809;47.984;7.964;2023-03-01T04:58:37;97533.38;;;0.60;74.14
43701;BME280;58809;47.984;7.964;2023-03-01T05:01:38;97522.97;;;0.60;74.55
43701;BME280;58809;47.984;7.964;2023-03-01T05:04:40;97535.53;;;0.66;73.78
43701;BME280;58809;47.984;7.964;2023-03-01T05:07:41;97531.19;;;0.66;74.08
43701;BME280;58809;47.984;7.964;2023-03-01T05:10:45;97513.06;;;0.65;74.08
43701;BME280;58809;47.984;7.964;2023-03-01T05:13:47;97508.47;;;0.68;73.79
43701;BME280;58809;47.984;7.964;2023-03-01T05:16:51;97510.34;;;0.66;73.93
43701;BME280;58809;47.984;7.964;2023-03-01T05:19:52;97516.28;;;0.68;73.79
43701;BME280;58809;47.984;7.964;2023-03-01T05:22:58;97509.28;;;0.69;73.87
43701;BME280;58809;47.984;7.964;2023-03-01T05:26:01;97508.47;;;0.68;73.24
43701;BME280;58809;47.984;7.964;2023-03-01T05:29:06;97509.28;;;0.69;73.71
43701;BME280;58809;47.984;7.964;2023-03-01T05:32:09;97512.59;;;0.71;73.61
43701;BME280;58809;47.984;7.964;2023-03-01T05:35:17;97498.97;;;0.67;73.65
43701;BME280;58809;47.984;7.964;2023-03-01T05:38:20;97504.78;;;0.71;73.54
43701;BME280;58809;47.984;7.964;2023-03-01T05:41:21;97505.59;;;0.71;73.13
43701;BME280;58809;47.984;7.964;2023-03-01T05:44:23;97500.28;;;0.73;73.16
43701;BME280;58809;47.984;7.964;2023-03-01T05:47:25;97502.78;;;0.74;73.11
43701;BME280;58809;47.984;7.964;2023-03-01T05:50:29;97498.41;;;0.75;72.83
43701;BME280;58809;47.984;7.964;2023-03-01T05:53:31;97495.78;;;0.75;72.91
43701;BME280;58809;47.984;7.964;2023-03-01T05:56:33;97491.75;;;0.71;72.75
43701;BME280;58809;47.984;7.964;2023-03-01T05:59:35;97495.09;;;0.73;72.85
43701;BME280;58809;47.984;7.964;2023-03-01T06:02:37;97494.25;;;0.72;73.11
43701;BME280;58809;47.984;7.964;2023-03-01T06:05:39;97497.38;;;0.77;72.69
43701;BME280;58809;47.984;7.964;2023-03-01T06:08:41;97499.97;;;0.77;72.53
43701;BME280;58809;47.984;7.964;2023-03-01T06:11:43;97492.03;;;0.79;72.55
43701;BME280;58809;47.984;7.964;2023-03-01T06:14:46;97492.88;;;0.80;72.54
43701;BME280;58809;47.984;7.964;2023-03-01T06:17:48;97483.28;;;0.80;72.42
43701;BME280;58809;47.984;7.964;2023-03-01T06:20:54;97497.97;;;0.81;72.55
43701;BME280;58809;47.984;7.964;2023-03-01T06:23:56;97502.22;;;0.82;72.53
43701;BME280;58809;47.984;7.964;2023-03-01T06:26:57;97499.75;;;0.81;72.61
43701;BME280;58809;47.984;7.964;2023-03-01T06:29:59;97496.56;;;0.88;72.47
43701;BME280;58809;47.984;7.964;2023-03-01T06:33:00;97504.16;;;0.91;72.39
43701;BME280;58809;47.984;7.964;2023-03-01T06:36:03;97500.16;;;0.99;71.85
43701;BME280;58809;47.984;7.964;2023-03-01T06:39:05;97496.84;;;1.08;72.28
43701;BME280;58809;47.984;7.964;2023-03-01T06:42:08;97505.88;;;1.15;72.03
43701;BME280;58809;47.984;7.964;2023-03-01T06:45:11;97503.28;;;1.15;71.96
43701;BME280;58809;47.984;7.964;2023-03-01T06:48:13;97508.38;;;1.17;71.78
43701;BME280;58809;47.984;7.964;2023-03-01T06:51:14;97503.44;;;1.25;71.92
43701;BME280;58809;47.984;7.964;2023-03-01T06:54:16;97504.97;;;1.27;71.69
43701;BME280;58809;47.984;7.964;2023-03-01T06:57:19;97506.75;;;1.27;71.79
43701;BME280;58809;47.984;7.964;2023-03-01T07:00:20;97504.97;;;1.27;71.50
43701;BME280;58809;47.984;7.964;2023-03-01T07:03:22;97502.59;;;1.24;71.26
43701;BME280;58809;47.984;7.964;2023-03-01T07:06:24;97498.81;;;1.28;71.45
43701;BME280;58809;47.984;7.964;2023-03-01T07:09:25;97498.25;;;1.36;71.23
43701;BME280;58809;47.984;7.964;2023-03-01T07:12:27;97497.28;;;1.37;71.57
43701;BME280;58809;47.984;7.964;2023-03-01T07:15:28;97500.84;;;1.36;71.00
43701;BME280;58809;47.984;7.964;2023-03-01T07:18:30;97495.97;;;1.43;71.05
43701;BME280;58809;47.984;7.964;2023-03-01T07:21:31;97495.75;;;1.46;71.20
43701;BME280;58809;47.984;7.964;2023-03-01T07:24:33;97493.38;;;1.43;70.79
43701;BME280;58809;47.984;7.964;2023-03-01T07:27:35;97494.44;;;1.40;71.06
43701;BME280;58809;47.984;7.964;2023-03-01T07:30:37;97498.13;;;1.49;70.61
43701;BME280;58809;47.984;7.964;2023-03-01T07:33:38;97492.44;;;1.55;70.56
43701;BME280;58809;47.984;7.964;2023-03-01T07:36:40;97482.00;;;1.55;70.38
43701;BME280;58809;47.984;7.964;2023-03-01T07:39:44;97482.00;;;1.66;70.13
43701;BME280;58809;47.984;7.964;2023-03-01T07:42:45;97478.94;;;1.72;69.78
43701;BME280;58809;47.984;7.964;2023-03-01T07:45:47;97482.97;;;1.77;69.75
43701;BME280;58809;47.984;7.964;2023-03-01T07:48:56;97484.38;;;1.81;69.67
43701;BME280;58809;47.984;7.964;2023-03-01T07:51:59;97484.63;;;1.89;69.40
43701;BME280;58809;47.984;7.964;2023-03-01T07:55:00;97475.38;;;1.96;69.05
43701;BME280;58809;47.984;7.964;2023-03-01T07:58:02;97474.50;;;2.07;68.92
43701;BME280;58809;47.984;7.964;2023-03-01T08:01:06;97468.00;;;2.13;68.58
43701;BME280;58809;47.984;7.964;2023-03-01T08:04:08;97477.34;;;2.15;68.58
43701;BME280;58809;47.984;7.964;2023-03-01T08:07:09;97475.56;;;2.16;68.45
43701;BME280;58809;47.984;7.964;2023-03-01T08:10:11;97473.44;;;2.21;68.74
43701;BME280;58809;47.984;7.964;2023-03-01T08:13:12;97473.06;;;2.25;68.16
43701;BME280;58809;47.984;7.964;2023-03-01T08:16:15;97479.44;;;2.33;67.85
43701;BME280;58809;47.984;7.964;2023-03-01T08:19:17;97471.63;;;2.21;67.58
43701;BME280;58809;47.984;7.964;2023-03-01T08:22:19;97478.66;;;2.09;67.80
43701;BME280;58809;47.984;7.964;2023-03-01T08:25:20;97481.75;;;2.15;67.85
43701;BME280;58809;47.984;7.964;2023-03-01T08:28:22;97475.09;;;2.10;67.86
43701;BME280;58809;47.984;7.964;2023-03-01T08:31:28;97469.03;;;2.21;67.61
43701;BME280;58809;47.984;7.964;2023-03-01T08:34:30;97473.28;;;2.34;67.38
43701;BME280;58809;47.984;7.964;2023-03-01T08:37:32;97469.94;;;2.43;66.94
43701;BME280;58809;47.984;7.964;2023-03-01T08:40:34;97466.81;;;2.49;67.21
43701;BME280;58809;47.984;7.964;2023-03-01T08:43:35;97474.38;;;2.63;66.98
43701;BME280;58809;47.984;7.964;2023-03-01T08:46:39;97463.28;;;2.71;66.56
43701;BME280;58809;47.984;7.964;2023-03-01T08:49:41;97471.09;;;2.82;65.92
43701;BME280;58809;47.984;7.964;2023-03-01T08:52:43;97466.56;;;2.84;66.33
43701;BME280;58809;47.984;7.964;2023-03-01T08:55:44;97464.72;;;2.96;65.59
43701;BME280;58809;47.984;7.964;2023-03-01T08:58:48;97455.81;;;2.99;65.63
43701;BME280;58809;47.984;7.964;2023-03-01T09:01:49;97462.91;;;2.97;65.79
43701;BME280;58809;47.984;7.964;2023-03-01T09:04:51;97461.75;;;3.01;65.33
43701;BME280;58809;47.984;7.964;2023-03-01T09:07:52;97458.53;;;2.97;65.01
43701;BME280;58809;47.984;7.964;2023-03-01T09:10:54;97441.31;;;2.95;65.32
43701;BME280;58809;47.984;7.964;2023-03-01T09:13:56;97444.72;;;3.06;65.30
43701;BME280;58809;47.984;7.964;2023-03-01T09:16:57;97433.84;;;3.32;64.44
43701;BME280;58809;47.984;7.964;2023-03-01T09:19:59;97431.81;;;3.36;64.23
43701;BME280;58809;47.984;7.964;2023-03-01T09:23:01;97426.44;;;3.37;63.70
43701;BME280;58809;47.984;7.964;2023-03-01T09:26:03;97425.56;;;3.58;64.06
43701;BME280;58809;47.984;7.964;2023-03-01T09:29:04;97421.84;;;3.60;63.31
43701;BME280;58809;47.984;7.964;2023-03-01T09:32:06;97425.03;;;3.64;63.49
43701;BME280;58809;47.984;7.964;2023-03-01T09:35:09;97415.44;;;3.74;62.79
43701;BME280;58809;47.984;7.964;2023-03-01T09:38:11;97423.44;;;3.82;62.69
43701;BME280;58809;47.984;7.964;2023-03-01T09:47:46;97429.31;;;4.15;61.67
43701;BME280;58809;47.984;7.964;2023-03-01T09:50:50;97443.50;;;4.13;61.54
43701;BME280;58809;47.984;7.964;2023-03-01T09:53:52;97439.78;;;4.05;62.44
43701;BME280;58809;47.984;7.964;2023-03-01T09:57:07;97438.66;;;4.08;62.30
43701;BME280;58809;47.984;7.964;2023-03-01T10:03:48;97438.19;;;4.43;61.05
43701;BME280;58809;47.984;7.964;2023-03-01T10:07:10;97434.84;;;4.22;61.12
43701;BME280;58809;47.984;7.964;2023-03-01T10:10:24;97432.78;;;4.35;61.88
43701;BME280;58809;47.984;7.964;2023-03-01T10:16:46;97415.72;;;4.51;60.59
43701;BME280;58809;47.984;7.964;2023-03-01T10:19:49;97417.06;;;4.74;60.95
43701;BME280;58809;47.984;7.964;2023-03-01T10:22:51;97421.47;;;4.93;60.32
43701;BME280;58809;47.984;7.964;2023-03-01T10:29:09;97413.63;;;4.84;59.84
43701;BME280;58809;47.984;7.964;2023-03-01T10:32:11;97412.94;;;4.91;60.31
43701;BME280;58809;47.984;7.964;2023-03-01T10:35:21;97418.97;;;5.01;59.53
43701;BME280;58809;47.984;7.964;2023-03-01T10:38:23;97420.06;;;5.09;59.62
43701;BME280;58809;47.984;7.964;2023-03-01T10:41:27;97415.88;;;5.35;59.04
43701;BME280;58809;47.984;7.964;2023-03-01T10:44:38;97409.03;;;5.52;58.50
43701;BME280;58809;47.984;7.964;2023-03-01T10:47:40;97415.59;;;5.29;58.93
43701;BME280;58809;47.984;7.964;2023-03-01T10:50:47;97414.09;;;5.16;59.59
43701;BME280;58809;47.984;7.964;2023-03-01T10:53:49;97406.09;;;5.28;58.95
43701;BME280;58809;47.984;7.964;2023-03-01T10:56:55;97396.38;;;5.38;58.43
43701;BME280;58809;47.984;7.964;2023-03-01T11:00:24;97401.53;;;5.30;58.30
43701;BME280;58809;47.984;7.964;2023-03-01T11:03:37;97386.28;;;5.43;58.73
43701;BME280;58809;47.984;7.964;2023-03-01T11:06:40;97392.00;;;5.84;58.29
43701;BME280;58809;47.984;7.964;2023-03-01T11:09:42;97380.63;;;5.93;57.93
43701;BME280;58809;47.984;7.964;2023-03-01T11:12:44;97374.84;;;6.00;57.71
43701;BME280;58809;47.984;7.964;2023-03-01T11:16:06;97376.66;;;5.99;57.22
43701;BME280;58809;47.984;7.964;2023-03-01T11:22:17;97371.69;;;5.96;57.20
43701;BME280;58809;47.984;7.964;2023-03-01T11:25:26;97364.13;;;5.83;57.77
43701;BME280;58809;47.984;7.964;2023-03-01T11:28:29;97359.22;;;5.70;57.32
43701;BME280;58809;47.984;7.964;2023-03-01T11:31:31;97358.72;;;5.85;56.94
43701;BME280;58809;47.984;7.964;2023-03-01T11:34:49;97364.25;;;6.09;56.37
43701;BME280;58809;47.984;7.964;2023-03-01T11:41:18;97354.28;;;6.13;56.28
43701;BME280;58809;47.984;7.964;2023-03-01T11:44:24;97340.91;;;6.42;56.06
43701;BME280;58809;47.984;7.964;2023-03-01T11:50:48;97338.94;;;6.62;55.57
43701;BME280;58809;47.984;7.964;2023-03-01T11:54:11;97327.59;;;6.62;55.30
43701;BME280;58809;47.984;7.964;2023-03-01T12:04:18;97322.53;;;6.68;56.12
43701;BME280;58809;47.984;7.964;2023-03-01T12:11:10;97325.91;;;7.05;55.04
43701;BME280;58809;47.984;7.964;2023-03-01T12:14:43;97316.69;;;7.35;54.70
43701;BME280;58809;47.984;7.964;2023-03-01T12:21:48;97315.50;;;7.64;53.93
43701;BME280;58809;47.984;7.964;2023-03-01T12:38:16;97306.88;;;7.11;54.90
43701;BME280;58809;47.984;7.964;2023-03-01T12:51:04;97286.00;;;6.83;54.74
43701;BME280;58809;47.984;7.964;2023-03-01T12:54:15;97286.59;;;6.51;55.67
43701;BME280;58809;47.984;7.964;2023-03-01T12:57:42;97287.78;;;6.12;56.26
43701;BME280;58809;47.984;7.964;2023-03-01T13:01:15;97272.50;;;5.80;57.10
43701;BME280;58809;47.984;7.964;2023-03-01T13:04:53;97274.66;;;5.67;57.13
43701;BME280;58809;47.984;7.964;2023-03-01T13:11:06;97262.53;;;5.38;57.45
43701;BME280;58809;47.984;7.964;2023-03-01T13:17:32;97249.97;;;5.59;57.98
43701;BME280;58809;47.984;7.964;2023-03-01T13:20:46;97252.22;;;5.54;57.62
43701;BME280;58809;47.984;7.964;2023-03-01T13:23:48;97243.34;;;6.01;57.31
43701;BME280;58809;47.984;7.964;2023-03-01T13:27:21;97238.72;;;6.65;56.41
43701;BME280;58809;47.984;7.964;2023-03-01T13:33:42;97235.44;;;7.48;55.21
43701;BME280;58809;47.984;7.964;2023-03-01T13:36:49;97229.22;;;7.49;54.68
43701;BME280;58809;47.984;7.964;2023-03-01T13:39:51;97241.06;;;7.54;54.28
43701;BME280;58809;47.984;7.964;2023-03-01T13:42:54;97242.44;;;7.23;54.75
43701;BME280;58809;47.984;7.964;2023-03-01T13:46:19;97247.44;;;7.35;54.78
43701;BME280;58809;47.984;7.964;2023-03-01T13:49:24;97244.97;;;7.33;54.66
43701;BME280;58809;47.984;7.964;2023-03-01T13:52:43;97239.75;;;7.49;54.40
43701;BME280;58809;47.984;7.964;2023-03-01T13:55:52;97224.78;;;7.66;54.34
43701;BME280;58809;47.984;7.964;2023-03-01T14:02:00;97238.16;;;7.89;53.71
43701;BME280;58809;47.984;7.964;2023-03-01T14:05:02;97230.09;;;7.99;53.57
43701;BME280;58809;47.984;7.964;2023-03-01T14:08:05;97235.53;;;8.14;53.49
43701;BME280;58809;47.984;7.964;2023-03-01T14:14:39;97235.16;;;8.75;53.00
43701;BME280;58809;47.984;7.964;2023-03-01T14:20:54;97212.81;;;10.72;48.88
43701;BME280;58809;47.984;7.964;2023-03-01T14:23:56;97214.19;;;10.07;50.36
43701;BME280;58809;47.984;7.964;2023-03-01T14:27:01;97218.66;;;9.60;51.49
43701;BME280;58809;47.984;7.964;2023-03-01T14:30:11;97209.34;;;9.41;50.95
43701;BME280;58809;47.984;7.964;2023-03-01T14:33:24;97213.63;;;9.42;51.70
43701;BME280;58809;47.984;7.964;2023-03-01T14:36:28;97208.34;;;9.42;51.78
43701;BME280;58809;47.984;7.964;2023-03-01T14:39:32;97217.00;;;9.59;51.64
43701;BME280;58809;47.984;7.964;2023-03-01T14:42:35;97214.59;;;9.49;51.43
43701;BME280;58809;47.984;7.964;2023-03-01T14:45:37;97207.34;;;9.43;51.62
43701;BME280;58809;47.984;7.964;2023-03-01T14:48:39;97197.66;;;9.35;51.96
43701;BME280;58809;47.984;7.964;2023-03-01T14:51:42;97205.19;;;9.47;51.86
43701;BME280;58809;47.984;7.964;2023-03-01T14:54:50;97204.25;;;9.62;51.13
43701;BME280;58809;47.984;7.964;2023-03-01T14:57:53;97204.31;;;9.77;50.58
43701;BME280;58809;47.984;7.964;2023-03-01T15:00:58;97201.56;;;9.94;50.57
43701;BME280;58809;47.984;7.964;2023-03-01T15:04:01;97193.00;;;9.92;50.65
43701;BME280;58809;47.984;7.964;2023-03-01T15:07:03;97197.03;;;10.02;50.05
43701;BME280;58809;47.984;7.964;2023-03-01T15:10:16;97193.63;;;9.94;50.35
43701;BME280;58809;47.984;7.964;2023-03-01T15:13:24;97205.56;;;9.90;50.25
43701;BME280;58809;47.984;7.964;2023-03-01T15:16:29;97197.44;;;9.68;50.54
43701;BME280;58809;47.984;7.964;2023-03-01T15:19:32;97199.28;;;9.68;50.54
43701;BME280;58809;47.984;7.964;2023-03-01T15:22:34;97215.44;;;9.73;50.48
43701;BME280;58809;47.984;7.964;2023-03-01T15:25:36;97208.84;;;9.69;49.87
43701;BME280;58809;47.984;7.964;2023-03-01T15:28:42;97207.38;;;9.66;49.65
43701;BME280;58809;47.984;7.964;2023-03-01T15:31:55;97206.84;;;9.48;49.89
43701;BME280;58809;47.984;7.964;2023-03-01T15:34:58;97206.25;;;8.98;50.33
43701;BME280;58809;47.984;7.964;2023-03-01T15:38:00;97202.22;;;8.62;50.38
43701;BME280;58809;47.984;7.964;2023-03-01T15:41:19;97197.88;;;8.86;50.56
43701;BME280;58809;47.984;7.964;2023-03-01T15:44:33;97199.72;;;8.69;50.33
43701;BME280;58809;47.984;7.964;2023-03-01T15:47:48;97205.53;;;8.40;50.72
43701;BME280;58809;47.984;7.964;2023-03-01T15:50:58;97193.03;;;8.42;51.36
43701;BME280;58809;47.984;7.964;2023-03-01T15:54:07;97202.03;;;8.64;50.76
43701;BME280;58809;47.984;7.964;2023-03-01T15:57:13;97196.97;;;8.54;51.02
43701;BME280;58809;47.984;7.964;2023-03-01T16:00:16;97187.41;;;8.37;51.29
43701;BME280;58809;47.984;7.964;2023-03-01T16:03:18;97191.22;;;8.34;51.21
43701;BME280;58809;47.984;7.964;2023-03-01T16:06:22;97200.94;;;8.25;51.15
43701;BME280;58809;47.984;7.964;2023-03-01T16:09:25;97193.22;;;7.99;51.85
43701;BME280;58809;47.984;7.964;2023-03-01T16:12:27;97201.28;;;7.73;52.57
43701;BME280;58809;47.984;7.964;2023-03-01T16:15:33;97187.03;;;7.41;53.26
43701;BME280;58809;47.984;7.964;2023-03-01T16:18:38;97194.31;;;6.97;54.62
43701;BME280;58809;47.984;7.964;2023-03-01T16:21:40;97187.09;;;6.64;55.46
43701;BME280;58809;47.984;7.964;2023-03-01T16:24:50;97195.28;;;6.61;56.01
43701;BME280;58809;47.984;7.964;2023-03-01T16:28:03;97208.03;;;6.48;57.02
43701;BME280;58809;47.984;7.964;2023-03-01T16:31:11;97195.81;;;6.39;57.04
43701;BME280;58809;47.984;7.964;2023-03-01T16:34:13;97206.84;;;6.16;57.13
43701;BME280;58809;47.984;7.964;2023-03-01T16:37:15;97206.59;;;5.91;58.38
43701;BME280;58809;47.984;7.964;2023-03-01T16:40:23;97208.22;;;5.66;59.17
43701;BME280;58809;47.984;7.964;2023-03-01T16:43:25;97208.63;;;5.44;59.26
43701;BME280;58809;47.984;7.964;2023-03-01T16:46:28;97210.13;;;5.28;60.00
43701;BME280;58809;47.984;7.964;2023-03-01T16:49:30;97201.78;;;5.15;60.76
43701;BME280;58809;47.984;7.964;2023-03-01T16:52:33;97215.94;;;5.04;61.33
43701;BME280;58809;47.984;7.964;2023-03-01T16:55:35;97214.06;;;4.87;61.16
43701;BME280;58809;47.984;7.964;2023-03-01T16:58:38;97218.63;;;4.85;62.02
43701;BME280;58809;47.984;7.964;2023-03-01T17:01:40;97218.09;;;4.81;61.88
43701;BME280;58809;47.984;7.964;2023-03-01T17:04:42;97228.31;;;4.74;61.67
43701;BME280;58809;47.984;7.964;2023-03-01T17:07:44;97229.03;;;4.76;61.79
43701;BME280;58809;47.984;7.964;2023-03-01T17:10:45;97229.94;;;4.85;61.69
43701;BME280;58809;47.984;7.964;2023-03-01T17:13:47;97229.66;;;4.88;62.04
43701;BME280;58809;47.984;7.964;2023-03-01T17:16:49;97243.97;;;4.94;62.08
43701;BME280;58809;47.984;7.964;2023-03-01T17:19:50;97235.03;;;4.87;62.32
43701;BME280;58809;47.984;7.964;2023-03-01T17:22:52;97239.19;;;4.89;61.94
43701;BME280;58809;47.984;7.964;2023-03-01T17:25:54;97239.72;;;4.93;62.35
43701;BME280;58809;47.984;7.964;2023-03-01T17:28:56;97237.97;;;4.84;62.89
43701;BME280;58809;47.984;7.964;2023-03-01T17:31:59;97241.31;;;4.66;63.11
43701;BME280;58809;47.984;7.964;2023-03-01T17:35:01;97242.31;;;4.55;63.25
43701;BME280;58809;47.984;7.964;2023-03-01T17:38:04;97237.53;;;4.51;63.94
43701;BME280;58809;47.984;7.964;2023-03-01T17:41:06;97242.31;;;4.55;64.89
43701;BME280;58809;47.984;7.964;2023-03-01T17:44:07;97239.69;;;4.55;64.70
43701;BME280;58809;47.984;7.964;2023-03-01T17:47:09;97252.13;;;4.53;65.40
43701;BME280;58809;47.984;7.964;2023-03-01T17:50:11;97257.63;;;4.50;64.98
43701;BME280;58809;47.984;7.964;2023-03-01T17:53:13;97258.25;;;4.34;66.13
43701;BME280;58809;47.984;7.964;2023-03-01T17:56:16;97263.88;;;4.10;66.77